createdAt,value
2022-08-21T00:00:30.222Z,0.00
2022-08-21T00:01:30.203Z,0.00
2022-08-21T00:02:30.232Z,0.00
2022-08-21T00:03:30.194Z,0.00
2022-08-21T00:04:30.329Z,0.00
2022-08-21T00:05:30.139Z,0.00
2022-08-21T00:06:30.103Z,0.00
2022-08-21T00:07:31.093Z,0.00
2022-08-21T00:08:30.122Z,0.00
2022-08-21T00:09:30.073Z,0.00
2022-08-21T00:10:30.187Z,0.00
2022-08-21T00:11:30.032Z,0.00
2022-08-21T00:12:30.052Z,0.00
2022-08-21T00:13:30.032Z,0.00
2022-08-21T00:14:31.298Z,0.00
2022-08-21T00:15:48.020Z,0.00
2022-08-21T00:16:29.950Z,0.00
2022-08-21T00:17:29.964Z,0.00
2022-08-21T00:18:29.945Z,0.00
2022-08-21T00:19:29.892Z,0.00
2022-08-21T00:20:29.881Z,0.00
2022-08-21T00:21:29.869Z,0.00
2022-08-21T00:22:29.845Z,0.00
2022-08-21T00:23:29.860Z,0.00
2022-08-21T00:24:29.812Z,0.00
2022-08-21T00:25:29.790Z,0.00
2022-08-21T00:26:29.778Z,0.00
2022-08-21T00:27:29.768Z,0.00
2022-08-21T00:28:29.788Z,0.00
2022-08-21T00:29:29.742Z,0.00
2022-08-21T00:30:29.721Z,0.00
2022-08-21T00:31:29.704Z,0.00
2022-08-21T00:32:29.677Z,0.00
2022-08-21T00:33:29.692Z,0.00
2022-08-21T00:34:29.681Z,0.00
2022-08-21T00:35:29.647Z,0.00
2022-08-21T00:36:29.610Z,0.00
2022-08-21T00:37:30.507Z,0.00
2022-08-21T00:38:29.606Z,0.00
2022-08-21T00:39:29.563Z,0.00
2022-08-21T00:40:29.560Z,0.00
2022-08-21T00:41:37.546Z,0.00
2022-08-21T00:42:30.517Z,0.00
2022-08-21T00:43:29.556Z,0.00
2022-08-21T00:44:29.497Z,0.00
2022-08-21T00:45:29.465Z,0.00
2022-08-21T00:46:29.448Z,0.00
2022-08-21T00:47:29.446Z,0.00
2022-08-21T00:48:29.466Z,0.00
2022-08-21T00:49:29.393Z,0.00
2022-08-21T00:50:29.386Z,0.00
2022-08-21T00:51:29.356Z,0.00
2022-08-21T00:52:29.344Z,0.00
2022-08-21T00:53:29.358Z,0.00
2022-08-21T00:54:29.312Z,0.00
2022-08-21T00:55:29.311Z,0.00
2022-08-21T00:56:29.274Z,0.00
2022-08-21T00:57:29.263Z,0.00
2022-08-21T00:58:29.278Z,0.00
2022-08-21T00:59:29.233Z,0.00
2022-08-21T01:00:29.206Z,0.00
2022-08-21T01:01:29.241Z,0.00
2022-08-21T01:02:29.174Z,0.00
2022-08-21T01:03:29.201Z,0.00
2022-08-21T01:04:29.147Z,0.00
2022-08-21T01:05:29.126Z,0.00
2022-08-21T01:06:29.097Z,0.00
2022-08-21T01:07:29.104Z,0.00
2022-08-21T01:08:29.103Z,0.00
2022-08-21T01:09:29.046Z,0.00
2022-08-21T01:10:30.033Z,0.00
2022-08-21T01:11:29.019Z,0.00
2022-08-21T01:12:28.991Z,0.00
2022-08-21T01:13:29.017Z,0.00
2022-08-21T01:14:29.962Z,0.00
2022-08-21T01:15:28.945Z,0.00
2022-08-21T01:16:28.941Z,0.00
2022-08-21T01:17:28.913Z,0.00
2022-08-21T01:18:28.931Z,0.00
2022-08-21T01:19:28.961Z,0.00
2022-08-21T01:20:32.544Z,0.00
2022-08-21T01:21:28.854Z,0.00
2022-08-21T01:22:28.834Z,0.00
2022-08-21T01:23:28.844Z,0.00
2022-08-21T01:24:29.809Z,0.00
2022-08-21T01:25:28.795Z,0.00
2022-08-21T01:26:34.537Z,0.00
2022-08-21T01:27:29.746Z,0.00
2022-08-21T01:28:28.777Z,0.00
2022-08-21T01:29:28.723Z,0.00
2022-08-21T01:30:28.701Z,0.00
2022-08-21T01:31:28.693Z,0.00
2022-08-21T01:32:28.661Z,0.00
2022-08-21T01:33:28.704Z,0.00
2022-08-21T01:34:28.666Z,0.00
2022-08-21T01:35:28.625Z,0.00
2022-08-21T01:36:28.595Z,0.00
2022-08-21T01:37:28.578Z,0.00
2022-08-21T01:38:28.630Z,0.00
2022-08-21T01:39:28.557Z,0.00
2022-08-21T01:40:28.568Z,0.00
2022-08-21T01:41:28.525Z,0.00
2022-08-21T01:42:28.507Z,0.00
2022-08-21T01:43:39.141Z,0.00
2022-08-21T01:44:29.476Z,0.00
2022-08-21T01:45:28.441Z,0.00
2022-08-21T01:46:28.435Z,0.00
2022-08-21T01:47:28.415Z,0.00
2022-08-21T01:48:28.427Z,0.00
2022-08-21T01:49:28.393Z,0.00
2022-08-21T01:50:28.390Z,0.00
2022-08-21T01:51:28.343Z,0.00
2022-08-21T01:52:28.329Z,0.00
2022-08-21T01:53:33.215Z,0.00
2022-08-21T01:54:29.307Z,0.00
2022-08-21T01:55:28.286Z,0.00
2022-08-21T01:56:28.262Z,0.00
2022-08-21T01:57:28.254Z,0.00
2022-08-21T01:58:28.232Z,0.00
2022-08-21T01:59:28.243Z,0.00
2022-08-21T02:00:28.192Z,0.00
2022-08-21T02:01:28.235Z,0.00
2022-08-21T02:02:28.156Z,0.00
2022-08-21T02:03:35.803Z,0.00
2022-08-21T02:04:29.152Z,0.00
2022-08-21T02:05:28.115Z,0.00
2022-08-21T02:06:28.089Z,0.00
2022-08-21T02:07:28.075Z,0.00
2022-08-21T02:08:28.068Z,0.00
2022-08-21T02:09:28.105Z,0.00
2022-08-21T02:10:28.035Z,0.00
2022-08-21T02:11:28.014Z,0.00
2022-08-21T02:12:28.003Z,0.00
2022-08-21T02:13:27.985Z,0.00
2022-08-21T02:14:32.929Z,0.00
2022-08-21T02:15:28.954Z,0.00
2022-08-21T02:16:27.933Z,0.00
2022-08-21T02:17:27.918Z,0.00
2022-08-21T02:18:27.902Z,0.00
2022-08-21T02:19:27.922Z,0.00
2022-08-21T02:20:28.875Z,0.00
2022-08-21T02:21:27.863Z,0.00
2022-08-21T02:22:27.862Z,0.00
2022-08-21T02:23:27.825Z,0.00
2022-08-21T02:24:27.833Z,0.00
2022-08-21T02:25:27.793Z,0.00
2022-08-21T02:26:27.786Z,0.00
2022-08-21T02:27:27.750Z,0.00
2022-08-21T02:28:27.805Z,0.00
2022-08-21T02:29:27.783Z,0.00
2022-08-21T02:30:27.702Z,0.00
2022-08-21T02:31:28.699Z,0.00
2022-08-21T02:32:27.685Z,0.00
2022-08-21T02:33:27.751Z,0.00
2022-08-21T02:34:29.279Z,0.00
2022-08-21T02:35:27.637Z,0.00
2022-08-21T02:36:27.617Z,0.00
2022-08-21T02:37:27.602Z,0.00
2022-08-21T02:38:27.580Z,0.00
2022-08-21T02:39:27.831Z,0.00
2022-08-21T02:40:27.528Z,0.00
2022-08-21T02:41:27.533Z,0.00
2022-08-21T02:42:27.504Z,0.00
2022-08-21T02:43:27.505Z,0.00
2022-08-21T02:44:30.093Z,0.00
2022-08-21T02:45:28.465Z,0.00
2022-08-21T02:46:27.441Z,0.00
2022-08-21T02:47:27.425Z,0.00
2022-08-21T02:48:27.409Z,0.00
2022-08-21T02:49:27.417Z,0.00
2022-08-21T02:50:27.376Z,0.00
2022-08-21T02:51:27.364Z,0.00
2022-08-21T02:52:27.335Z,0.00
2022-08-21T02:53:27.316Z,0.00
2022-08-21T02:54:27.336Z,0.00
2022-08-21T02:55:27.282Z,0.00
2022-08-21T02:56:29.768Z,0.00
2022-08-21T02:57:27.253Z,0.00
2022-08-21T02:58:27.247Z,0.00
2022-08-21T02:59:27.258Z,0.00
2022-08-21T03:00:27.223Z,0.00
2022-08-21T03:01:27.228Z,0.00
2022-08-21T03:02:27.174Z,0.00
2022-08-21T03:03:27.155Z,0.00
2022-08-21T03:04:27.161Z,0.00
2022-08-21T03:05:27.128Z,0.00
2022-08-21T03:06:27.101Z,0.00
2022-08-21T03:07:27.083Z,0.00
2022-08-21T03:08:27.797Z,0.00
2022-08-21T03:09:27.081Z,0.00
2022-08-21T03:10:27.031Z,0.00
2022-08-21T03:11:27.028Z,0.00
2022-08-21T03:12:28.529Z,0.00
2022-08-21T03:13:26.990Z,0.00
2022-08-21T03:14:26.995Z,0.00
2022-08-21T03:15:27.945Z,0.00
2022-08-21T03:16:26.935Z,0.00
2022-08-21T03:17:29.561Z,0.00
2022-08-21T03:18:27.907Z,0.00
2022-08-21T03:19:26.909Z,0.00
2022-08-21T03:20:26.863Z,0.00
2022-08-21T03:21:26.855Z,0.00
2022-08-21T03:22:26.860Z,0.00
2022-08-21T03:23:26.821Z,0.00
2022-08-21T03:24:27.838Z,0.00
2022-08-21T03:25:40.306Z,0.00
2022-08-21T03:26:28.040Z,0.00
2022-08-21T03:27:27.766Z,0.00
2022-08-21T03:28:26.743Z,0.00
2022-08-21T03:29:26.752Z,0.00
2022-08-21T03:30:26.735Z,0.00
2022-08-21T03:31:26.705Z,0.00
2022-08-21T03:32:26.671Z,0.00
2022-08-21T03:33:26.651Z,0.00
2022-08-21T03:34:26.677Z,0.00
2022-08-21T03:35:26.625Z,0.00
2022-08-21T03:36:26.635Z,0.00
2022-08-21T03:37:26.596Z,0.00
2022-08-21T03:38:26.919Z,0.00
2022-08-21T03:39:27.594Z,0.00
2022-08-21T03:40:26.541Z,0.00
2022-08-21T03:41:26.519Z,0.00
2022-08-21T03:42:26.503Z,0.00
2022-08-21T03:43:26.488Z,0.00
2022-08-21T03:44:26.504Z,0.00
2022-08-21T03:45:26.461Z,0.00
2022-08-21T03:46:26.453Z,0.00
2022-08-21T03:47:26.452Z,0.00
2022-08-21T03:48:26.415Z,0.00
2022-08-21T03:49:26.443Z,0.00
2022-08-21T03:50:26.379Z,0.00
2022-08-21T03:51:26.364Z,0.00
2022-08-21T03:52:26.359Z,0.00
2022-08-21T03:53:26.323Z,0.00
2022-08-21T03:54:26.356Z,0.00
2022-08-21T03:55:26.310Z,0.00
2022-08-21T03:56:26.281Z,0.00
2022-08-21T03:57:26.273Z,0.00
2022-08-21T03:58:26.247Z,0.00
2022-08-21T03:59:26.276Z,0.00
2022-08-21T04:00:26.216Z,0.00
2022-08-21T04:01:26.214Z,0.00
2022-08-21T04:02:26.178Z,0.00
2022-08-21T04:03:26.170Z,0.00
2022-08-21T04:04:26.182Z,0.00
2022-08-21T04:05:26.135Z,0.00
2022-08-21T04:06:26.112Z,5.62
2022-08-21T04:07:26.095Z,5.62
2022-08-21T04:08:26.106Z,5.62
2022-08-21T04:09:26.100Z,5.62
2022-08-21T04:10:26.057Z,5.62
2022-08-21T04:11:26.033Z,5.62
2022-08-21T04:12:26.023Z,11.25
2022-08-21T04:13:25.993Z,11.25
2022-08-21T04:14:26.007Z,11.25
2022-08-21T04:15:25.969Z,11.25
2022-08-21T04:16:25.946Z,11.25
2022-08-21T04:17:25.941Z,11.25
2022-08-21T04:18:25.920Z,16.88
2022-08-21T04:19:25.928Z,16.88
2022-08-21T04:20:25.895Z,16.88
2022-08-21T04:21:25.889Z,16.88
2022-08-21T04:22:25.848Z,22.50
2022-08-21T04:23:25.859Z,22.50
2022-08-21T04:24:25.858Z,22.50
2022-08-21T04:25:25.806Z,22.50
2022-08-21T04:26:25.794Z,28.12
2022-08-21T04:27:25.786Z,28.12
2022-08-21T04:28:28.887Z,28.12
2022-08-21T04:29:25.788Z,28.12
2022-08-21T04:30:28.567Z,33.75
2022-08-21T04:31:25.695Z,33.75
2022-08-21T04:32:25.700Z,33.75
2022-08-21T04:33:25.670Z,33.75
2022-08-21T04:34:25.682Z,33.75
2022-08-21T04:35:25.637Z,39.38
2022-08-21T04:36:25.625Z,39.38
2022-08-21T04:37:25.599Z,39.38
2022-08-21T04:38:25.582Z,45.00
2022-08-21T04:39:29.461Z,45.00
2022-08-21T04:40:25.639Z,50.62
2022-08-21T04:41:28.271Z,50.62
2022-08-21T04:42:25.519Z,56.25
2022-08-21T04:43:25.508Z,61.88
2022-08-21T04:44:25.532Z,73.12
2022-08-21T04:45:25.478Z,78.75
2022-08-21T04:46:25.457Z,90.00
2022-08-21T04:47:41.834Z,95.62
2022-08-21T04:48:26.414Z,95.62
2022-08-21T04:49:25.448Z,101.25
2022-08-21T04:50:25.383Z,112.50
2022-08-21T04:51:25.369Z,123.75
2022-08-21T04:52:25.347Z,129.38
2022-08-21T04:53:25.335Z,135.00
2022-08-21T04:54:25.341Z,146.25
2022-08-21T04:55:25.298Z,151.88
2022-08-21T04:56:25.291Z,163.12
2022-08-21T04:57:25.261Z,180.00
2022-08-21T04:58:26.250Z,191.25
2022-08-21T04:59:25.278Z,202.50
2022-08-21T05:00:25.232Z,213.75
2022-08-21T05:01:25.265Z,219.38
2022-08-21T05:02:25.187Z,230.62
2022-08-21T05:03:25.171Z,241.88
2022-08-21T05:04:25.251Z,258.75
2022-08-21T05:05:25.139Z,275.62
2022-08-21T05:06:25.119Z,292.50
2022-08-21T05:07:42.311Z,320.62
2022-08-21T05:08:26.116Z,348.75
2022-08-21T05:09:25.102Z,371.25
2022-08-21T05:10:25.056Z,388.12
2022-08-21T05:11:25.034Z,393.75
2022-08-21T05:12:25.020Z,405.00
2022-08-21T05:13:25.023Z,421.88
2022-08-21T05:14:25.023Z,444.38
2022-08-21T05:15:24.960Z,466.88
2022-08-21T05:16:36.430Z,568.12
2022-08-21T05:17:25.975Z,736.88
2022-08-21T05:18:24.906Z,984.38
2022-08-21T05:19:24.953Z,1198.12
2022-08-21T05:20:24.976Z,1282.50
2022-08-21T05:21:24.862Z,1327.50
2022-08-21T05:22:24.840Z,1260.00
2022-08-21T05:23:24.823Z,1260.00
2022-08-21T05:24:24.840Z,1327.50
2022-08-21T05:25:24.794Z,1372.50
2022-08-21T05:26:24.776Z,1411.88
2022-08-21T05:27:24.753Z,1383.75
2022-08-21T05:28:24.742Z,1378.12
2022-08-21T05:29:24.762Z,1383.75
2022-08-21T05:30:24.708Z,1327.50
2022-08-21T05:31:24.687Z,945.00
2022-08-21T05:32:24.681Z,748.12
2022-08-21T05:33:24.659Z,759.38
2022-08-21T05:34:24.662Z,1158.75
2022-08-21T05:35:24.625Z,1653.75
2022-08-21T05:36:24.605Z,1771.88
2022-08-21T05:37:24.586Z,1715.62
2022-08-21T05:38:24.567Z,1046.25
2022-08-21T05:39:25.579Z,601.88
2022-08-21T05:40:24.580Z,1018.12
2022-08-21T05:41:24.520Z,984.38
2022-08-21T05:42:24.495Z,607.50
2022-08-21T05:43:24.479Z,613.12
2022-08-21T05:44:24.511Z,618.75
2022-08-21T05:45:34.691Z,630.00
2022-08-21T05:46:25.440Z,635.62
2022-08-21T05:47:24.429Z,641.25
2022-08-21T05:48:24.402Z,652.50
2022-08-21T05:49:24.413Z,663.75
2022-08-21T05:50:24.360Z,680.62
2022-08-21T05:51:25.528Z,691.88
2022-08-21T05:52:24.337Z,714.38
2022-08-21T05:53:24.314Z,742.50
2022-08-21T05:54:24.333Z,759.38
2022-08-21T05:55:24.278Z,1237.50
2022-08-21T05:56:24.280Z,2131.88
2022-08-21T05:57:24.251Z,2261.25
2022-08-21T05:58:24.228Z,2317.50
2022-08-21T05:59:24.236Z,2261.25
2022-08-21T06:00:24.251Z,1698.75
2022-08-21T06:01:24.229Z,1119.38
2022-08-21T06:02:24.170Z,776.25
2022-08-21T06:03:24.152Z,731.25
2022-08-21T06:04:24.162Z,736.88
2022-08-21T06:05:36.341Z,748.12
2022-08-21T06:06:25.100Z,765.00
2022-08-21T06:07:24.085Z,776.25
2022-08-21T06:08:24.074Z,781.88
2022-08-21T06:09:24.074Z,793.12
2022-08-21T06:10:24.032Z,810.00
2022-08-21T06:11:28.332Z,832.50
2022-08-21T06:12:26.007Z,877.50
2022-08-21T06:13:23.999Z,945.00
2022-08-21T06:14:24.002Z,2424.38
2022-08-21T06:15:23.962Z,2351.25
2022-08-21T06:16:50.346Z,1012.50
2022-08-21T06:17:23.928Z,1057.50
2022-08-21T06:18:23.916Z,1462.50
2022-08-21T06:19:23.929Z,2345.62
2022-08-21T06:20:23.889Z,1586.25
2022-08-21T06:21:23.914Z,961.88
2022-08-21T06:22:23.849Z,787.50
2022-08-21T06:23:23.826Z,742.50
2022-08-21T06:24:24.862Z,759.38
2022-08-21T06:25:23.818Z,810.00
2022-08-21T06:26:23.803Z,815.62
2022-08-21T06:27:26.627Z,826.88
2022-08-21T06:28:24.768Z,843.75
2022-08-21T06:29:23.769Z,860.62
2022-08-21T06:30:23.738Z,883.12
2022-08-21T06:31:23.724Z,973.12
2022-08-21T06:32:23.682Z,1513.12
2022-08-21T06:33:23.664Z,2649.38
2022-08-21T06:34:23.689Z,2880.00
2022-08-21T06:35:23.651Z,3037.50
2022-08-21T06:36:23.615Z,2947.50
2022-08-21T06:37:23.594Z,3037.50
2022-08-21T06:38:23.659Z,2964.38
2022-08-21T06:39:25.626Z,2947.50
2022-08-21T06:40:24.590Z,2126.25
2022-08-21T06:41:24.272Z,1417.50
2022-08-21T06:42:23.514Z,2058.75
2022-08-21T06:43:23.506Z,2863.12
2022-08-21T06:44:24.560Z,2795.62
2022-08-21T06:45:23.513Z,1597.50
2022-08-21T06:46:23.462Z,3279.38
2022-08-21T06:47:23.459Z,3279.38
2022-08-21T06:48:23.415Z,2773.12
2022-08-21T06:49:23.435Z,2525.62
2022-08-21T06:50:23.379Z,3678.75
2022-08-21T06:51:23.381Z,3459.38
2022-08-21T06:52:23.354Z,3088.12
2022-08-21T06:53:23.393Z,2418.75
2022-08-21T06:54:23.412Z,1704.38
2022-08-21T06:55:26.290Z,1456.88
2022-08-21T06:56:24.288Z,1468.12
2022-08-21T06:57:23.267Z,1468.12
2022-08-21T06:58:23.275Z,1490.62
2022-08-21T06:59:23.279Z,1507.50
2022-08-21T07:00:23.228Z,1518.75
2022-08-21T07:01:23.265Z,1636.88
2022-08-21T07:02:23.206Z,2328.75
2022-08-21T07:03:23.195Z,3060.00
2022-08-21T07:04:23.212Z,3864.38
2022-08-21T07:05:23.145Z,4590.00
2022-08-21T07:06:23.150Z,4803.75
2022-08-21T07:07:23.133Z,4398.75
2022-08-21T07:08:23.107Z,3836.25
2022-08-21T07:09:24.821Z,3886.88
2022-08-21T07:10:24.072Z,4095.00
2022-08-21T07:11:23.061Z,4235.62
2022-08-21T07:12:23.074Z,4246.88
2022-08-21T07:13:23.027Z,4325.62
2022-08-21T07:14:23.043Z,4325.62
2022-08-21T07:15:22.996Z,4066.88
2022-08-21T07:16:22.983Z,4078.12
2022-08-21T07:17:22.957Z,4303.12
2022-08-21T07:18:22.956Z,4606.88
2022-08-21T07:19:22.963Z,4803.75
2022-08-21T07:20:22.918Z,4691.25
2022-08-21T07:21:25.981Z,4606.88
2022-08-21T07:22:23.893Z,4696.88
2022-08-21T07:23:22.881Z,4803.75
2022-08-21T07:24:22.939Z,4455.00
2022-08-21T07:25:22.845Z,4320.00
2022-08-21T07:26:22.906Z,4455.00
2022-08-21T07:27:22.807Z,4730.62
2022-08-21T07:28:22.803Z,5017.50
2022-08-21T07:29:22.841Z,5017.50
2022-08-21T07:30:22.846Z,5085.00
2022-08-21T07:31:22.749Z,4905.00
2022-08-21T07:32:22.741Z,4826.25
2022-08-21T07:33:22.747Z,5040.00
2022-08-21T07:34:22.752Z,4950.00
2022-08-21T07:35:22.704Z,4331.25
2022-08-21T07:36:22.673Z,4291.88
2022-08-21T07:37:22.668Z,4950.00
2022-08-21T07:38:22.654Z,4837.50
2022-08-21T07:39:22.661Z,4865.62
2022-08-21T07:40:22.737Z,5388.75
2022-08-21T07:41:22.623Z,5355.00
2022-08-21T07:42:22.603Z,5326.88
2022-08-21T07:43:22.580Z,5220.00
2022-08-21T07:44:22.623Z,4893.75
2022-08-21T07:45:22.571Z,4702.50
2022-08-21T07:46:22.552Z,4702.50
2022-08-21T07:47:41.571Z,5079.38
2022-08-21T07:48:23.523Z,5017.50
2022-08-21T07:49:22.575Z,5141.25
2022-08-21T07:50:22.484Z,5793.75
2022-08-21T07:51:22.465Z,5236.88
2022-08-21T07:52:22.472Z,4944.38
2022-08-21T07:53:22.489Z,5056.88
2022-08-21T07:54:33.670Z,4725.00
2022-08-21T07:55:23.418Z,4983.75
2022-08-21T07:56:22.426Z,4905.00
2022-08-21T07:57:22.390Z,4657.50
2022-08-21T07:58:22.408Z,4843.12
2022-08-21T07:59:22.425Z,4803.75
2022-08-21T08:00:22.411Z,4989.38
2022-08-21T08:01:22.391Z,5118.75
2022-08-21T08:02:22.318Z,5028.75
2022-08-21T08:03:28.783Z,4955.62
2022-08-21T08:04:26.362Z,5051.25
2022-08-21T08:05:23.281Z,5028.75
2022-08-21T08:06:22.320Z,5332.50
2022-08-21T08:07:22.297Z,5445.00
2022-08-21T08:08:22.267Z,5360.62
2022-08-21T08:09:22.335Z,5276.25
2022-08-21T08:10:22.229Z,5242.50
2022-08-21T08:11:22.214Z,5163.75
2022-08-21T08:12:22.201Z,5332.50
2022-08-21T08:13:22.181Z,5259.38
2022-08-21T08:14:31.336Z,5225.62
2022-08-21T08:15:23.160Z,5293.12
2022-08-21T08:16:22.292Z,5011.88
2022-08-21T08:17:22.196Z,4961.25
2022-08-21T08:18:22.114Z,5737.50
2022-08-21T08:19:22.150Z,5833.12
2022-08-21T08:20:22.081Z,5203.12
2022-08-21T08:21:22.119Z,5231.25
2022-08-21T08:22:22.084Z,5658.75
2022-08-21T08:23:22.070Z,5506.88
2022-08-21T08:24:22.059Z,4978.12
2022-08-21T08:25:22.036Z,5698.12
2022-08-21T08:26:22.007Z,5895.00
2022-08-21T08:27:22.018Z,5349.38
2022-08-21T08:28:21.985Z,4893.75
2022-08-21T08:29:22.022Z,5118.75
2022-08-21T08:30:21.981Z,5838.75
2022-08-21T08:31:21.944Z,5366.25
2022-08-21T08:32:21.955Z,4972.50
2022-08-21T08:33:21.932Z,5011.88
2022-08-21T08:34:25.181Z,4860.00
2022-08-21T08:35:24.338Z,5203.12
2022-08-21T08:36:21.905Z,5169.38
2022-08-21T08:37:21.883Z,5473.12
2022-08-21T08:38:24.436Z,5242.50
2022-08-21T08:39:27.106Z,5158.12
2022-08-21T08:40:22.921Z,5625.00
2022-08-21T08:41:21.854Z,5782.50
2022-08-21T08:42:32.098Z,5270.62
2022-08-21T08:43:22.796Z,5040.00
2022-08-21T08:44:21.809Z,5613.75
2022-08-21T08:45:21.780Z,5551.88
2022-08-21T08:46:21.757Z,5326.88
2022-08-21T08:47:21.738Z,5225.62
2022-08-21T08:48:21.750Z,5214.38
2022-08-21T08:49:21.774Z,5535.00
2022-08-21T08:50:21.697Z,5253.75
2022-08-21T08:51:21.707Z,4888.12
2022-08-21T08:52:21.690Z,5152.50
2022-08-21T08:53:21.670Z,5776.88
2022-08-21T08:54:21.696Z,6226.88
2022-08-21T08:55:25.376Z,5456.25
2022-08-21T08:56:23.634Z,4550.62
2022-08-21T08:57:21.619Z,4972.50
2022-08-21T08:58:21.612Z,5653.12
2022-08-21T08:59:21.628Z,6283.12
2022-08-21T09:00:21.616Z,4466.25
2022-08-21T09:01:21.636Z,4640.62
2022-08-21T09:02:21.583Z,5265.00
2022-08-21T09:03:21.546Z,4719.38
2022-08-21T09:04:21.560Z,4376.25
2022-08-21T09:05:21.518Z,5096.25
2022-08-21T09:06:21.525Z,5473.12
2022-08-21T09:07:21.541Z,5028.75
2022-08-21T09:08:22.481Z,5445.00
2022-08-21T09:09:21.521Z,5630.62
2022-08-21T09:10:21.452Z,4865.62
2022-08-21T09:11:21.447Z,5023.12
2022-08-21T09:12:21.522Z,5371.88
2022-08-21T09:13:21.409Z,5113.12
2022-08-21T09:14:21.460Z,4905.00
2022-08-21T09:15:21.399Z,5760.00
2022-08-21T09:16:21.436Z,5360.62
2022-08-21T09:17:21.374Z,4966.88
2022-08-21T09:18:21.344Z,4972.50
2022-08-21T09:19:24.881Z,4927.50
2022-08-21T09:20:21.360Z,5433.75
2022-08-21T09:21:21.342Z,5332.50
2022-08-21T09:22:21.305Z,4685.62
2022-08-21T09:23:21.323Z,4809.38
2022-08-21T09:24:21.279Z,4848.75
2022-08-21T09:25:21.313Z,4938.75
2022-08-21T09:26:21.243Z,4831.88
2022-08-21T09:27:21.241Z,4978.12
2022-08-21T09:28:21.232Z,4944.38
2022-08-21T09:29:21.206Z,4871.25
2022-08-21T09:30:21.236Z,5006.25
2022-08-21T09:31:21.210Z,5203.12
2022-08-21T09:32:21.169Z,5101.88
2022-08-21T09:33:21.183Z,5478.75
2022-08-21T09:34:21.147Z,5011.88
2022-08-21T09:35:21.174Z,4505.62
2022-08-21T09:36:21.123Z,4983.75
2022-08-21T09:37:21.109Z,4876.88
2022-08-21T09:38:21.119Z,4770.00
2022-08-21T09:39:21.104Z,4545.00
2022-08-21T09:40:21.177Z,5394.38
2022-08-21T09:41:21.073Z,5259.38
2022-08-21T09:42:21.048Z,4595.62
2022-08-21T09:43:21.040Z,5051.25
2022-08-21T09:44:21.021Z,4899.38
2022-08-21T09:45:21.052Z,4753.12
2022-08-21T09:46:21.015Z,4696.88
2022-08-21T09:47:24.966Z,4961.25
2022-08-21T09:48:26.320Z,5006.25
2022-08-21T09:49:20.972Z,4786.88
2022-08-21T09:50:20.988Z,4365.00
2022-08-21T09:51:20.939Z,4438.12
2022-08-21T09:52:21.932Z,4556.25
2022-08-21T09:53:20.964Z,2863.12
2022-08-21T09:54:20.914Z,4151.25
2022-08-21T09:55:21.006Z,4477.50
2022-08-21T09:56:24.214Z,4899.38
2022-08-21T09:57:20.877Z,4893.75
2022-08-21T09:58:20.837Z,4573.12
2022-08-21T09:59:20.838Z,4736.25
2022-08-21T10:00:20.869Z,4528.12
2022-08-21T10:01:21.937Z,3808.12
2022-08-21T10:02:20.805Z,4595.62
2022-08-21T10:03:20.784Z,4500.00
2022-08-21T10:04:20.781Z,1282.50
2022-08-21T10:05:20.784Z,1035.00
2022-08-21T10:06:20.739Z,4263.75
2022-08-21T10:07:20.727Z,4314.38
2022-08-21T10:08:20.736Z,4308.75
2022-08-21T10:09:21.787Z,4393.12
2022-08-21T10:10:21.751Z,3864.38
2022-08-21T10:11:20.677Z,4190.62
2022-08-21T10:12:20.687Z,4173.75
2022-08-21T10:13:20.645Z,4410.00
2022-08-21T10:14:20.653Z,3138.75
2022-08-21T10:15:20.656Z,4213.12
2022-08-21T10:16:20.613Z,4438.12
2022-08-21T10:17:20.618Z,4764.38
2022-08-21T10:18:20.620Z,4522.50
2022-08-21T10:19:20.577Z,4252.50
2022-08-21T10:20:20.587Z,4179.38
2022-08-21T10:21:20.614Z,4106.25
2022-08-21T10:22:20.552Z,4190.62
2022-08-21T10:23:20.520Z,2795.62
2022-08-21T10:24:30.930Z,3999.38
2022-08-21T10:25:21.539Z,1040.62
2022-08-21T10:26:20.479Z,967.50
2022-08-21T10:27:20.478Z,3740.62
2022-08-21T10:28:20.452Z,4010.62
2022-08-21T10:29:20.452Z,3791.25
2022-08-21T10:30:20.470Z,4314.38
2022-08-21T10:31:20.414Z,4201.88
2022-08-21T10:32:25.851Z,3684.38
2022-08-21T10:33:21.384Z,3127.50
2022-08-21T10:34:20.402Z,973.12
2022-08-21T10:35:20.389Z,967.50
2022-08-21T10:36:20.361Z,933.75
2022-08-21T10:37:20.336Z,1068.75
2022-08-21T10:38:46.283Z,1125.00
2022-08-21T10:39:35.510Z,2677.50
2022-08-21T10:40:22.377Z,1507.50
2022-08-21T10:41:20.283Z,4072.50
2022-08-21T10:42:22.706Z,3211.88
2022-08-21T10:43:21.252Z,1158.75
2022-08-21T10:44:20.246Z,3583.12
2022-08-21T10:45:20.257Z,1209.38
2022-08-21T10:46:20.231Z,1046.25
2022-08-21T10:47:20.188Z,1085.62
2022-08-21T10:48:20.168Z,1462.50
2022-08-21T10:49:20.171Z,1355.62
2022-08-21T10:50:20.176Z,1305.00
2022-08-21T10:51:20.131Z,1355.62
2022-08-21T10:52:21.164Z,1333.12
2022-08-21T10:53:20.120Z,1305.00
2022-08-21T10:54:23.390Z,1299.38
2022-08-21T10:55:21.131Z,1299.38
2022-08-21T10:56:20.119Z,1288.12
2022-08-21T10:57:24.066Z,1310.62
2022-08-21T10:58:21.043Z,1035.00
2022-08-21T10:59:20.042Z,1316.25
2022-08-21T11:00:20.030Z,1029.38
2022-08-21T11:01:20.071Z,860.62
2022-08-21T11:02:19.969Z,866.25
2022-08-21T11:03:19.958Z,894.38
2022-08-21T11:04:19.943Z,888.75
2022-08-21T11:05:19.965Z,838.12
2022-08-21T11:06:19.907Z,871.88
2022-08-21T11:07:19.884Z,1226.25
2022-08-21T11:08:19.868Z,1186.88
2022-08-21T11:09:19.874Z,1164.38
2022-08-21T11:10:19.991Z,1113.75
2022-08-21T11:11:19.947Z,1068.75
2022-08-21T11:12:19.817Z,1046.25
2022-08-21T11:13:19.862Z,1012.50
2022-08-21T11:14:19.794Z,1001.25
2022-08-21T11:15:28.734Z,1001.25
2022-08-21T11:16:20.758Z,883.12
2022-08-21T11:17:21.947Z,826.88
2022-08-21T11:18:20.718Z,765.00
2022-08-21T11:19:19.707Z,990.00
2022-08-21T11:20:19.719Z,1029.38
2022-08-21T11:21:19.737Z,1057.50
2022-08-21T11:22:19.651Z,1057.50
2022-08-21T11:23:19.654Z,1035.00
2022-08-21T11:24:19.605Z,995.62
2022-08-21T11:25:19.634Z,787.50
2022-08-21T11:26:19.580Z,748.12
2022-08-21T11:27:19.587Z,725.62
2022-08-21T11:28:19.569Z,742.50
2022-08-21T11:29:19.543Z,753.75
2022-08-21T11:30:19.552Z,866.25
2022-08-21T11:31:19.516Z,849.38
2022-08-21T11:32:19.499Z,798.75
2022-08-21T11:33:19.576Z,793.12
2022-08-21T11:34:20.474Z,781.88
2022-08-21T11:35:19.494Z,849.38
2022-08-21T11:36:19.521Z,866.25
2022-08-21T11:37:19.461Z,843.75
2022-08-21T11:38:19.406Z,742.50
2022-08-21T11:39:19.393Z,798.75
2022-08-21T11:40:19.444Z,787.50
2022-08-21T11:41:19.359Z,781.88
2022-08-21T11:42:19.366Z,770.62
2022-08-21T11:43:19.395Z,669.38
2022-08-21T11:44:19.325Z,675.00
2022-08-21T11:45:19.333Z,680.62
2022-08-21T11:46:19.292Z,669.38
2022-08-21T11:47:19.268Z,697.50
2022-08-21T11:48:19.265Z,708.75
2022-08-21T11:49:19.254Z,658.12
2022-08-21T11:50:34.248Z,652.50
2022-08-21T11:51:20.231Z,618.75
2022-08-21T11:52:19.202Z,618.75
2022-08-21T11:53:19.231Z,641.25
2022-08-21T11:54:19.216Z,714.38
2022-08-21T11:55:23.694Z,731.25
2022-08-21T11:56:19.145Z,742.50
2022-08-21T11:57:19.122Z,748.12
2022-08-21T11:58:19.115Z,720.00
2022-08-21T11:59:19.094Z,691.88
2022-08-21T12:00:19.126Z,675.00
2022-08-21T12:01:19.080Z,658.12
2022-08-21T12:02:19.096Z,646.88
2022-08-21T12:03:19.095Z,641.25
2022-08-21T12:04:19.022Z,635.62
2022-08-21T12:05:19.155Z,618.75
2022-08-21T12:06:24.135Z,562.50
2022-08-21T12:07:19.971Z,613.12
2022-08-21T12:08:18.994Z,618.75
2022-08-21T12:09:18.939Z,613.12
2022-08-21T12:10:18.942Z,613.12
2022-08-21T12:11:18.893Z,601.88
2022-08-21T12:12:18.938Z,596.25
2022-08-21T12:13:18.920Z,607.50
2022-08-21T12:14:19.118Z,601.88
2022-08-21T12:15:19.869Z,607.50
2022-08-21T12:16:18.879Z,613.12
2022-08-21T12:17:45.218Z,607.50
2022-08-21T12:18:18.804Z,613.12
2022-08-21T12:19:18.778Z,618.75
2022-08-21T12:20:18.806Z,618.75
2022-08-21T12:21:18.745Z,596.25
2022-08-21T12:22:18.742Z,590.62
2022-08-21T12:23:18.853Z,590.62
2022-08-21T12:24:18.708Z,579.38
2022-08-21T12:25:21.680Z,562.50
2022-08-21T12:26:19.728Z,551.25
2022-08-21T12:27:18.707Z,556.88
2022-08-21T12:28:18.640Z,573.75
2022-08-21T12:29:18.645Z,579.38
2022-08-21T12:30:18.643Z,573.75
2022-08-21T12:31:18.591Z,573.75
2022-08-21T12:32:18.594Z,568.12
2022-08-21T12:33:18.664Z,562.50
2022-08-21T12:34:18.575Z,562.50
2022-08-21T12:35:25.452Z,573.75